Strona główna
METAR-TAF:

METAR-TAF

Lotnisko :

Lydd, Anglia

Szerokość geograficzna: 50-57N, Długość geograficzna: 000-56E, wysokość: 3 m

Aktualna obserwacja pogody

Raport powstał 21 minut temu, godzina 14:20 UTC
Wiatr 8 kt od wschód
Temperatura 25°C
Wilgotność 61%
Ciśnienie 1019 hPa
Widzialność 10 km lub więcej
Brak chmur poniżej 1500 m i brak chmur cumulonimbus

METAR: EGMD 241420Z 09008KT CAVOK 25/17 Q1019

czas: 15:41 (14:41 UTC)

Prognoza

Raport powstał 37 minut temu, godzina 14:04 UTC
Prognoza ważna od 24 godzina 15 UTC do 24 godzina 24 UTC
Wiatr 8 kt od wschód
Widzialność 10 km lub więcej
Brak chmur poniżej 1500 m i brak chmur cumulonimbus
Prawdopodobieństwo 40% :
Przejściowo
od 24 godzina 15 UTC do 24 godzina 24 UTC
Widzialność: 8000 m

TAF: EGMD 241404Z 2415/2424 09008KT CAVOK PROB40 TEMPO 2415/2424 8000

Obserwacja i prognoza pogody dla ponad 4000 lotnisk (raport METAR i TAF).

Dostępne stacje oznaczono żółtymi i czerwonymi punktami na mapie.

Najedź kursorem aby zobaczyć nazwę stacji.

Kliknij aby zobaczyć obserwacje i prognozy pogody.

Aby zmienić mapę: kliknij na zielony przycisk z czarnym krzyżykiem, aby powiększyć; na zielony przycisk z myślnikiem, aby pomniejszyć; na zielone strzałki, aby przejść do map sąsiednich.


METAR-TAF: